createdAt,value
2022-11-07T00:01:18.873Z,99896.31
2022-11-07T00:03:45.747Z,99903.34
2022-11-07T00:06:12.568Z,99900.63
2022-11-07T00:08:39.065Z,99912.03
2022-11-07T00:11:07.046Z,99913.72
2022-11-07T00:13:34.083Z,99907.53
2022-11-07T00:16:02.346Z,99904.84
2022-11-07T00:18:28.883Z,99904.78
2022-11-07T00:20:55.797Z,99907.38
2022-11-07T00:23:22.360Z,99909.09
2022-11-07T00:25:49.114Z,99907.31
2022-11-07T00:28:15.896Z,99907.28
2022-11-07T00:30:42.479Z,99911.63
2022-11-07T00:33:09.148Z,99920.41
2022-11-07T00:35:35.642Z,99916.81
2022-11-07T00:38:02.184Z,99914.16
2022-11-07T00:40:28.683Z,99917.66
2022-11-07T00:42:55.280Z,99920.28
2022-11-07T00:45:21.772Z,99919.34
2022-11-07T00:47:48.278Z,99920.19
2022-11-07T00:50:14.817Z,99919.28
2022-11-07T00:52:41.347Z,99922.81
2022-11-07T00:55:07.991Z,99934.28
2022-11-07T00:57:34.675Z,99926.38
2022-11-07T01:00:01.165Z,99924.66
2022-11-07T01:02:27.907Z,99925.53
2022-11-07T01:05:12.973Z,99937.84
2022-11-07T01:07:40.066Z,99936.94
2022-11-07T01:10:07.691Z,99944.84
2022-11-07T01:12:35.534Z,99937.81
2022-11-07T01:15:03.927Z,99945.75
2022-11-07T01:17:30.643Z,99951.13
2022-11-07T01:19:57.183Z,99946.81
2022-11-07T01:22:23.671Z,99937.16
2022-11-07T01:24:50.328Z,99939.81
2022-11-07T01:27:16.871Z,99938.97
2022-11-07T01:29:43.348Z,99948.63
2022-11-07T01:32:09.838Z,99938.97
2022-11-07T01:34:39.310Z,99940.72
2022-11-07T01:37:05.914Z,99944.19
2022-11-07T01:39:32.735Z,99940.69
2022-11-07T01:41:59.374Z,99961.88
2022-11-07T01:44:25.957Z,99949.59
2022-11-07T01:46:57.295Z,99944.31
2022-11-07T01:49:32.710Z,99946.06
2022-11-07T01:52:14.782Z,99941.66
2022-11-07T01:54:47.980Z,99934.59
2022-11-07T01:57:21.205Z,99946.03
2022-11-07T01:59:49.858Z,99946.97
2022-11-07T02:02:17.692Z,99946.16
2022-11-07T02:04:44.623Z,99947.97
2022-11-07T02:07:22.644Z,99942.75
2022-11-07T02:09:52.017Z,99941.91
2022-11-07T02:12:19.785Z,99947.19
2022-11-07T02:14:46.529Z,99947.25
2022-11-07T02:17:14.470Z,99944.63
2022-11-07T02:19:47.609Z,99952.59
2022-11-07T02:22:35.039Z,99957.00
2022-11-07T02:25:05.748Z,99968.47
2022-11-07T02:27:33.748Z,99964.13
2022-11-07T02:30:05.526Z,99968.56
2022-11-07T02:32:32.519Z,99958.84
2022-11-07T02:35:01.742Z,99972.09
2022-11-07T02:37:34.190Z,99968.56
2022-11-07T02:40:04.681Z,99969.47
2022-11-07T02:42:43.377Z,99971.25
2022-11-07T02:45:13.945Z,99959.78
2022-11-07T02:47:40.646Z,99960.69
2022-11-07T02:50:11.832Z,99974.78
2022-11-07T02:52:38.426Z,99967.75
2022-11-07T02:55:06.621Z,99965.09
2022-11-07T02:57:33.456Z,99971.25
2022-11-07T02:59:59.980Z,99967.75
2022-11-07T03:02:27.005Z,99981.84
2022-11-07T03:04:53.927Z,99974.81
2022-11-07T03:07:20.515Z,99974.81
2022-11-07T03:09:47.059Z,99973.97
2022-11-07T03:12:13.534Z,99972.19
2022-11-07T03:14:40.172Z,99976.59
2022-11-07T03:17:06.810Z,99976.59
2022-11-07T03:19:33.521Z,99981.03
2022-11-07T03:22:00.046Z,99981.94
2022-11-07T03:24:26.643Z,99980.16
2022-11-07T03:26:53.240Z,99989.88
2022-11-07T03:29:20.635Z,99974.91
2022-11-07T03:31:47.158Z,99981.94
2022-11-07T03:34:13.707Z,99984.56
2022-11-07T03:36:40.621Z,99983.72
2022-11-07T03:39:07.279Z,99990.75
2022-11-07T03:41:33.828Z,99984.59
2022-11-07T03:44:00.386Z,99985.47
2022-11-07T03:46:26.930Z,99978.44
2022-11-07T03:48:53.438Z,99978.44
2022-11-07T03:51:20.061Z,99981.94
2022-11-07T03:53:46.785Z,99984.56
2022-11-07T03:56:13.595Z,99989.88
2022-11-07T03:58:40.180Z,99986.38
2022-11-07T04:01:06.815Z,99998.69
2022-11-07T04:03:33.361Z,99998.69
2022-11-07T04:05:59.943Z,100000.47
2022-11-07T04:08:26.464Z,100003.13
2022-11-07T04:10:53.933Z,99994.28
2022-11-07T04:13:39.157Z,99993.44
2022-11-07T04:16:28.490Z,99999.59
2022-11-07T04:18:56.131Z,100006.66
2022-11-07T04:21:23.411Z,100007.50
2022-11-07T04:23:50.268Z,100012.81
2022-11-07T04:26:38.372Z,100009.31
2022-11-07T04:29:05.148Z,100006.66
2022-11-07T04:31:31.714Z,100017.22
2022-11-07T04:33:58.309Z,100009.31
2022-11-07T04:36:24.845Z,100016.38
2022-11-07T04:38:51.348Z,100007.53
2022-11-07T04:41:20.620Z,100008.41
2022-11-07T04:43:47.561Z,100011.06
2022-11-07T04:46:14.587Z,100011.03
2022-11-07T04:48:41.084Z,100015.41
2022-11-07T04:51:13.528Z,100018.91
2022-11-07T04:53:40.301Z,100023.31
2022-11-07T04:56:07.204Z,100024.19
2022-11-07T04:58:33.706Z,100021.53
2022-11-07T05:01:00.303Z,100025.94
2022-11-07T05:03:26.849Z,100033.03
2022-11-07T05:05:53.713Z,100027.75
2022-11-07T05:08:20.312Z,100033.94
2022-11-07T05:10:46.839Z,100037.50
2022-11-07T05:13:13.623Z,100033.06
2022-11-07T05:15:40.917Z,100029.56
2022-11-07T05:18:07.430Z,100029.56
2022-11-07T05:20:38.996Z,100017.22
2022-11-07T05:23:13.039Z,100031.34
2022-11-07T05:25:42.718Z,100028.66
2022-11-07T05:28:14.678Z,100034.78
2022-11-07T05:30:42.409Z,100035.66
2022-11-07T05:33:10.438Z,100033.03
2022-11-07T05:35:37.411Z,100028.63
2022-11-07T05:38:04.728Z,100031.28
2022-11-07T05:40:31.815Z,100030.38
2022-11-07T05:43:07.122Z,100028.59
2022-11-07T05:45:37.701Z,100026.84
2022-11-07T05:48:06.787Z,100035.66
2022-11-07T05:50:33.613Z,100043.56
2022-11-07T05:53:00.447Z,100019.75
2022-11-07T05:55:27.528Z,100027.69
2022-11-07T05:57:54.270Z,100032.09
2022-11-07T06:00:20.841Z,100036.47
2022-11-07T06:02:55.838Z,100039.97
2022-11-07T06:05:24.280Z,100034.63
2022-11-07T06:07:51.093Z,100042.56
2022-11-07T06:10:17.826Z,100042.56
2022-11-07T06:12:44.322Z,100037.31
2022-11-07T06:15:11.890Z,100045.25
2022-11-07T06:17:39.059Z,100043.47
2022-11-07T06:20:06.260Z,100039.06
2022-11-07T06:22:32.763Z,100046.16
2022-11-07T06:24:59.300Z,100059.41
2022-11-07T06:27:25.847Z,100057.69
2022-11-07T06:29:52.427Z,100057.72
2022-11-07T06:32:19.026Z,100064.81
2022-11-07T06:34:45.664Z,100063.06
2022-11-07T06:37:12.166Z,100075.41
2022-11-07T06:39:38.702Z,100064.84
2022-11-07T06:42:05.309Z,100069.25
2022-11-07T06:44:31.907Z,100079.81
2022-11-07T06:46:58.515Z,100077.16
2022-11-07T06:49:25.320Z,100085.94
2022-11-07T06:51:51.960Z,100077.09
2022-11-07T06:54:18.544Z,100085.88
2022-11-07T06:56:45.194Z,100101.72
2022-11-07T06:59:12.006Z,100094.63
2022-11-07T07:01:38.744Z,100099.03
2022-11-07T07:04:05.485Z,100105.16
2022-11-07T07:06:32.038Z,100100.75
2022-11-07T07:08:58.552Z,100105.13
2022-11-07T07:11:25.496Z,100113.03
2022-11-07T07:13:52.285Z,100105.09
2022-11-07T07:16:18.898Z,100106.88
2022-11-07T07:18:45.855Z,100112.16
2022-11-07T07:21:14.550Z,100106.88
2022-11-07T07:23:41.267Z,100100.69
2022-11-07T07:26:12.433Z,100114.81
2022-11-07T07:28:39.111Z,100112.19
2022-11-07T07:31:14.667Z,100121.00
2022-11-07T07:33:42.364Z,100113.09
2022-11-07T07:36:09.761Z,100107.84
2022-11-07T07:38:36.996Z,100121.06
2022-11-07T07:41:04.147Z,100107.00
2022-11-07T07:43:31.367Z,100113.19
2022-11-07T07:45:59.457Z,100112.31
2022-11-07T07:48:26.339Z,100124.69
2022-11-07T07:50:53.139Z,100122.03
2022-11-07T07:53:20.053Z,100115.91
2022-11-07T07:55:46.795Z,100112.41
2022-11-07T07:58:13.996Z,100114.19
2022-11-07T08:00:41.266Z,100112.44
2022-11-07T08:03:11.426Z,100109.84
2022-11-07T08:05:39.353Z,100108.09
2022-11-07T08:08:07.459Z,100124.88
2022-11-07T08:10:42.012Z,100121.38
2022-11-07T08:13:09.463Z,100127.56
2022-11-07T08:15:35.950Z,100123.16
2022-11-07T08:18:03.931Z,100117.88
2022-11-07T08:20:30.978Z,100127.59
2022-11-07T08:23:06.903Z,100130.28
2022-11-07T08:25:36.555Z,100119.69
2022-11-07T08:28:03.079Z,100121.47
2022-11-07T08:30:31.671Z,100122.38
2022-11-07T08:33:03.188Z,100137.38
2022-11-07T08:35:30.903Z,100132.13
2022-11-07T08:37:59.184Z,100136.53
2022-11-07T08:40:26.693Z,100127.72
2022-11-07T08:42:53.264Z,100135.66
2022-11-07T08:45:19.852Z,100137.41
2022-11-07T08:47:46.388Z,100148.91
2022-11-07T08:50:13.031Z,100145.38
2022-11-07T08:52:39.533Z,100145.41
2022-11-07T08:55:06.555Z,100148.06
2022-11-07T08:57:33.082Z,100142.75
2022-11-07T08:59:59.724Z,100141.91
2022-11-07T09:03:08.440Z,100148.94
2022-11-07T09:05:13.689Z,100141.03
2022-11-07T09:07:40.447Z,100146.34
2022-11-07T09:10:07.633Z,100147.22
2022-11-07T09:12:34.379Z,100145.50
2022-11-07T09:15:00.875Z,100150.78
2022-11-07T09:17:27.941Z,100138.44
2022-11-07T09:19:54.519Z,100141.09
2022-11-07T09:22:21.045Z,100149.94
2022-11-07T09:24:47.535Z,100141.09
2022-11-07T09:27:14.076Z,100143.72
2022-11-07T09:29:40.691Z,100138.44
2022-11-07T09:32:30.429Z,100153.47
2022-11-07T09:34:59.376Z,100144.63
2022-11-07T09:37:28.555Z,100135.78
2022-11-07T09:39:55.100Z,100134.88
2022-11-07T09:42:41.418Z,100141.03
2022-11-07T09:45:13.769Z,100140.16
2022-11-07T09:47:47.790Z,100138.34
2022-11-07T09:50:24.888Z,100140.09
2022-11-07T09:53:01.067Z,100132.09
2022-11-07T09:55:38.094Z,100142.66
2022-11-07T09:58:18.857Z,100144.44
2022-11-07T10:00:45.756Z,100133.81
2022-11-07T10:03:12.666Z,100134.66
2022-11-07T10:05:54.796Z,100131.97
2022-11-07T10:08:35.265Z,100128.38
2022-11-07T10:11:13.669Z,100131.84
2022-11-07T10:14:08.935Z,100132.66
2022-11-07T10:16:55.975Z,100143.22
2022-11-07T10:19:34.592Z,100145.75
2022-11-07T10:22:22.974Z,100143.88
2022-11-07T10:24:52.232Z,100144.69
2022-11-07T10:27:21.497Z,100142.88
2022-11-07T10:29:52.664Z,100141.94
2022-11-07T10:32:34.687Z,100143.72
2022-11-07T10:35:13.100Z,100132.03
2022-11-07T10:37:39.613Z,100144.34
2022-11-07T10:40:18.974Z,100141.66
2022-11-07T10:42:48.000Z,100141.72
2022-11-07T10:45:16.506Z,100150.66
2022-11-07T10:47:43.378Z,100149.81
2022-11-07T10:50:22.604Z,100150.69
2022-11-07T10:53:18.268Z,100154.19
2022-11-07T10:55:47.243Z,100158.59
2022-11-07T10:58:21.332Z,100158.56
2022-11-07T11:01:22.947Z,100150.56
2022-11-07T11:03:49.932Z,100153.13
2022-11-07T11:06:19.095Z,100157.50
2022-11-07T11:08:47.516Z,100153.97
2022-11-07T11:11:23.890Z,100144.97
2022-11-07T11:14:01.789Z,100147.63
2022-11-07T11:16:30.741Z,100144.09
2022-11-07T11:18:59.477Z,100149.41
2022-11-07T11:21:26.130Z,100151.22
2022-11-07T11:23:54.496Z,100154.84
2022-11-07T11:26:28.186Z,100148.66
2022-11-07T11:29:03.145Z,100154.06
2022-11-07T11:31:42.352Z,100147.03
2022-11-07T11:34:30.588Z,100156.81
2022-11-07T11:37:01.186Z,100158.59
2022-11-07T11:39:42.486Z,100147.91
2022-11-07T11:42:25.588Z,100145.19
2022-11-07T11:44:55.405Z,100138.88
2022-11-07T11:47:34.497Z,100144.00
2022-11-07T11:50:11.021Z,100145.69
2022-11-07T11:52:37.781Z,100145.66
2022-11-07T11:55:14.119Z,100146.44
2022-11-07T11:58:07.463Z,100142.78
2022-11-07T12:00:49.241Z,100146.22
2022-11-07T12:03:57.602Z,100142.69
2022-11-07T12:06:34.814Z,100142.69
2022-11-07T12:09:24.553Z,100142.69
2022-11-07T12:12:09.834Z,100136.44
2022-11-07T12:15:04.278Z,100144.31
2022-11-07T12:17:52.700Z,100134.38
2022-11-07T12:20:42.426Z,100136.03
2022-11-07T12:23:21.292Z,100129.69
2022-11-07T12:26:01.730Z,100129.56
2022-11-07T12:28:54.477Z,100130.34
2022-11-07T12:31:35.868Z,100130.31
2022-11-07T12:34:25.535Z,100136.41
2022-11-07T12:37:16.961Z,100140.66
2022-11-07T12:39:55.662Z,100132.53
2022-11-07T12:42:24.947Z,100137.72
2022-11-07T12:45:25.036Z,100139.53
2022-11-07T12:48:20.646Z,100137.81
2022-11-07T12:51:25.931Z,100134.31
2022-11-07T12:54:27.191Z,100136.22
2022-11-07T12:56:56.173Z,100139.84
2022-11-07T12:59:26.766Z,100137.16
2022-11-07T13:02:07.186Z,100130.94
2022-11-07T13:04:44.975Z,100130.09
2022-11-07T13:07:27.806Z,100129.28
2022-11-07T13:10:14.051Z,100134.66
2022-11-07T13:12:48.986Z,100126.66
2022-11-07T13:15:16.666Z,100117.91
2022-11-07T13:17:46.068Z,100124.97
2022-11-07T13:20:22.010Z,100127.53
2022-11-07T13:22:53.862Z,100122.19
2022-11-07T13:25:34.761Z,100133.84
2022-11-07T13:28:23.572Z,100129.41
2022-11-07T13:30:56.408Z,100129.44
2022-11-07T13:33:34.732Z,100136.63
2022-11-07T13:36:26.328Z,100140.31
2022-11-07T13:38:57.539Z,100147.50
2022-11-07T13:41:24.837Z,100154.56
2022-11-07T13:43:55.264Z,100150.22
2022-11-07T13:46:41.616Z,100144.03
2022-11-07T13:49:14.181Z,100156.50
2022-11-07T13:51:44.291Z,100148.50
2022-11-07T13:55:05.535Z,100152.94
2022-11-07T13:57:39.768Z,100144.13
2022-11-07T14:00:14.211Z,100153.06
2022-11-07T14:02:53.707Z,100163.75
2022-11-07T14:05:27.121Z,100161.09
2022-11-07T14:08:03.120Z,100168.19
2022-11-07T14:10:38.846Z,100171.78
2022-11-07T14:13:13.143Z,100170.06
2022-11-07T14:15:58.931Z,100165.72
2022-11-07T14:18:31.651Z,100178.16
2022-11-07T14:20:59.491Z,100179.97
2022-11-07T14:23:29.134Z,100174.72
2022-11-07T14:26:05.020Z,100183.63
2022-11-07T14:28:37.570Z,100185.44
2022-11-07T14:31:16.841Z,100181.91
2022-11-07T14:33:52.124Z,100178.34
2022-11-07T14:36:19.646Z,100178.34
2022-11-07T14:38:52.143Z,100181.94
2022-11-07T14:41:19.750Z,100179.25
2022-11-07T14:43:47.996Z,100182.84
2022-11-07T14:46:23.961Z,100177.53
2022-11-07T14:48:51.784Z,100178.50
2022-11-07T14:51:25.430Z,100188.28
2022-11-07T14:53:52.025Z,100192.78
2022-11-07T14:56:23.489Z,100197.31
2022-11-07T14:58:50.219Z,100208.09
2022-11-07T15:01:27.781Z,100191.41
2022-11-07T15:04:01.136Z,100189.72
2022-11-07T15:06:42.777Z,100196.88
2022-11-07T15:09:11.173Z,100192.44
2022-11-07T15:11:40.158Z,100195.09
2022-11-07T15:14:41.092Z,100199.56
2022-11-07T15:17:21.541Z,100188.00
2022-11-07T15:19:57.959Z,100189.78
2022-11-07T15:22:29.917Z,100193.31
2022-11-07T15:24:56.453Z,100196.84
2022-11-07T15:27:31.125Z,100198.59
2022-11-07T15:30:02.833Z,100200.41
2022-11-07T15:32:40.891Z,100205.72
2022-11-07T15:38:06.785Z,100195.09
2022-11-07T15:40:33.380Z,100203.09
2022-11-07T15:42:59.947Z,100199.56
2022-11-07T15:45:26.561Z,100211.09
2022-11-07T15:47:53.153Z,100197.78
2022-11-07T15:50:24.768Z,100200.44
2022-11-07T15:52:52.816Z,100205.75
2022-11-07T15:55:21.909Z,100199.56
2022-11-07T15:57:51.633Z,100204.03
2022-11-07T16:00:24.022Z,100200.50
2022-11-07T16:02:50.910Z,100207.56
2022-11-07T16:05:18.638Z,100203.19
2022-11-07T16:07:46.350Z,100206.72
2022-11-07T16:10:20.698Z,100208.50
2022-11-07T16:12:48.245Z,100207.59
2022-11-07T16:15:17.212Z,100206.69
2022-11-07T16:17:44.325Z,100207.59
2022-11-07T16:20:21.516Z,100207.59
2022-11-07T16:22:50.023Z,100218.22
2022-11-07T16:25:22.033Z,100212.03
2022-11-07T16:27:55.057Z,100217.34
2022-11-07T16:30:22.325Z,100224.44
2022-11-07T16:32:48.999Z,100231.50
2022-11-07T16:35:15.628Z,100228.00
2022-11-07T16:37:42.325Z,100221.78
2022-11-07T16:40:13.944Z,100224.41
2022-11-07T16:42:40.704Z,100228.84
2022-11-07T16:45:07.805Z,100236.81
2022-11-07T16:47:38.793Z,100233.22
2022-11-07T16:50:06.506Z,100230.59
2022-11-07T16:52:33.302Z,100231.47
2022-11-07T16:54:59.858Z,100227.91
2022-11-07T16:57:26.590Z,100233.25
2022-11-07T16:59:56.000Z,100245.66
2022-11-07T17:02:25.228Z,100235.91
2022-11-07T17:04:54.180Z,100226.16
2022-11-07T17:07:23.031Z,100228.81
2022-11-07T17:09:52.595Z,100243.00
2022-11-07T17:12:21.878Z,100242.13
2022-11-07T17:14:48.931Z,100242.13
2022-11-07T17:17:17.433Z,100244.81
2022-11-07T17:19:44.218Z,100241.25
2022-11-07T17:22:12.049Z,100244.84
2022-11-07T17:24:39.357Z,100251.91
2022-11-07T17:27:18.770Z,100246.59
2022-11-07T17:29:45.288Z,100246.59
2022-11-07T17:32:11.794Z,100241.25
2022-11-07T17:34:38.327Z,100249.25
2022-11-07T17:37:05.195Z,100254.56
2022-11-07T17:39:31.764Z,100257.25
2022-11-07T17:41:58.817Z,100255.44
2022-11-07T17:44:25.437Z,100257.25
2022-11-07T17:46:52.338Z,100253.72
2022-11-07T17:49:20.645Z,100252.81
2022-11-07T17:51:48.342Z,100254.59
2022-11-07T17:54:15.827Z,100245.78
2022-11-07T17:56:44.952Z,100245.78
2022-11-07T17:59:16.822Z,100238.72
2022-11-07T18:01:44.710Z,100252.91
2022-11-07T18:04:13.120Z,100250.28
2022-11-07T18:06:42.409Z,100247.66
2022-11-07T18:09:13.749Z,100255.63
2022-11-07T18:11:40.637Z,100258.31
2022-11-07T18:14:09.667Z,100255.66
2022-11-07T18:16:37.301Z,100262.72
2022-11-07T18:19:05.558Z,100260.97
2022-11-07T18:21:32.581Z,100265.44
2022-11-07T18:23:59.120Z,100262.81
2022-11-07T18:26:31.343Z,100266.38
2022-11-07T18:29:02.520Z,100261.97
2022-11-07T18:31:29.221Z,100271.72
2022-11-07T18:33:57.980Z,100264.63
2022-11-07T18:36:28.206Z,100270.84
2022-11-07T18:38:54.720Z,100262.03
2022-11-07T18:41:22.864Z,100262.94
2022-11-07T18:43:49.726Z,100262.06
2022-11-07T18:46:21.302Z,100261.19
2022-11-07T18:48:48.585Z,100263.81
2022-11-07T18:51:21.264Z,100268.25
2022-11-07T18:53:49.505Z,100262.94
2022-11-07T18:56:16.749Z,100268.22
2022-11-07T18:58:44.696Z,100267.31
2022-11-07T19:01:14.418Z,100272.63
2022-11-07T19:03:41.937Z,100254.00
2022-11-07T19:06:13.603Z,100262.88
2022-11-07T19:08:41.801Z,100258.44
2022-11-07T19:11:11.487Z,100265.56
2022-11-07T19:13:42.169Z,100272.66
2022-11-07T19:16:11.294Z,100271.75
2022-11-07T19:18:38.378Z,100269.13
2022-11-07T19:21:05.126Z,100266.44
2022-11-07T19:23:32.501Z,100264.63
2022-11-07T19:25:59.109Z,100261.09
2022-11-07T19:28:25.778Z,100266.38
2022-11-07T19:30:52.403Z,100270.81
2022-11-07T19:33:20.345Z,100269.91
2022-11-07T19:36:01.644Z,100275.22
2022-11-07T19:38:30.413Z,100264.56
2022-11-07T19:40:57.875Z,100274.31
2022-11-07T19:43:24.455Z,100271.66
2022-11-07T19:45:51.117Z,100261.84
2022-11-07T19:48:18.971Z,100266.31
2022-11-07T19:50:45.661Z,100263.63
2022-11-07T19:53:12.337Z,100261.84
2022-11-07T19:55:39.010Z,100263.63
2022-11-07T19:58:05.725Z,100269.81
2022-11-07T20:00:32.670Z,100270.72
2022-11-07T20:02:59.579Z,100273.34
2022-11-07T20:05:27.072Z,100268.91
2022-11-07T20:07:57.083Z,100269.78
2022-11-07T20:10:26.397Z,100277.78
2022-11-07T20:12:52.982Z,100273.31
2022-11-07T20:15:19.494Z,100273.31
2022-11-07T20:17:47.133Z,100270.66
2022-11-07T20:20:14.047Z,100271.53
2022-11-07T20:22:46.479Z,100278.66
2022-11-07T20:25:13.729Z,100271.53
2022-11-07T20:27:40.565Z,100278.63
2022-11-07T20:30:08.340Z,100276.84
2022-11-07T20:32:34.900Z,100285.69
2022-11-07T20:35:01.507Z,100283.94
2022-11-07T20:37:28.022Z,100283.03
2022-11-07T20:39:54.667Z,100288.34
2022-11-07T20:42:21.639Z,100298.13
2022-11-07T20:44:49.881Z,100299.91
2022-11-07T20:47:17.003Z,100295.47
2022-11-07T20:49:43.614Z,100299.91
2022-11-07T20:52:10.173Z,100300.78
2022-11-07T20:54:37.612Z,100294.56
2022-11-07T20:57:05.121Z,100307.84
2022-11-07T20:59:31.896Z,100306.09
2022-11-07T21:02:03.221Z,100312.28
2022-11-07T21:04:44.590Z,100294.53
2022-11-07T21:07:22.658Z,100306.97
2022-11-07T21:09:49.255Z,100310.50
2022-11-07T21:12:16.219Z,100294.53
2022-11-07T21:14:42.861Z,100298.09
2022-11-07T21:17:09.792Z,100302.53
2022-11-07T21:19:36.700Z,100298.13
2022-11-07T21:22:04.195Z,100305.25
2022-11-07T21:24:31.594Z,100307.00
2022-11-07T21:26:58.669Z,100308.78
2022-11-07T21:29:29.208Z,100303.50
2022-11-07T21:31:56.745Z,100305.28
2022-11-07T21:34:23.354Z,100306.22
2022-11-07T21:36:49.932Z,100311.50
2022-11-07T21:39:17.445Z,100293.81
2022-11-07T21:41:44.077Z,100300.91
2022-11-07T21:44:12.446Z,100296.50
2022-11-07T21:46:39.452Z,100296.50
2022-11-07T21:49:06.287Z,100295.66
2022-11-07T21:51:35.244Z,100298.31
2022-11-07T21:54:03.657Z,100299.22
2022-11-07T21:56:32.572Z,100296.59
2022-11-07T21:59:01.853Z,100287.75
2022-11-07T22:01:29.599Z,100293.94
2022-11-07T22:04:06.733Z,100282.47
2022-11-07T22:06:36.457Z,100285.13
2022-11-07T22:09:04.617Z,100281.56
2022-11-07T22:11:31.300Z,100286.88
2022-11-07T22:13:58.429Z,100290.41
2022-11-07T22:16:25.211Z,100289.53
2022-11-07T22:18:51.912Z,100290.44
2022-11-07T22:21:21.203Z,100294.88
2022-11-07T22:23:48.718Z,100291.31
2022-11-07T22:26:21.040Z,100300.19
2022-11-07T22:28:49.057Z,100297.53
2022-11-07T22:31:18.297Z,100294.91
2022-11-07T22:33:44.911Z,100289.56
2022-11-07T22:36:12.799Z,100286.94
2022-11-07T22:38:40.442Z,100286.94
2022-11-07T22:41:13.768Z,100282.50
2022-11-07T22:43:40.552Z,100288.72
2022-11-07T22:46:10.599Z,100288.69
2022-11-07T22:48:37.718Z,100288.69
2022-11-07T22:51:10.805Z,100286.94
2022-11-07T22:53:40.796Z,100277.22
2022-11-07T22:56:16.063Z,100284.31
2022-11-07T22:58:43.343Z,100280.75
2022-11-07T23:01:24.987Z,100273.66
2022-11-07T23:03:52.495Z,100272.75
2022-11-07T23:06:20.179Z,100273.63
2022-11-07T23:08:48.227Z,100270.09
2022-11-07T23:14:07.589Z,100274.50
2022-11-07T23:16:37.166Z,100270.97
2022-11-07T23:19:06.692Z,100275.44
2022-11-07T23:21:33.786Z,100264.78
2022-11-07T23:24:01.003Z,100273.66
2022-11-07T23:26:35.411Z,100273.66
2022-11-07T23:29:14.948Z,100272.75
2022-11-07T23:31:43.994Z,100277.19
2022-11-07T23:34:11.404Z,100272.78
2022-11-07T23:36:38.028Z,100274.50
2022-11-07T23:39:10.437Z,100273.66
2022-11-07T23:41:36.962Z,100271.84
2022-11-07T23:44:03.598Z,100275.41
2022-11-07T23:46:49.142Z,100277.16
2022-11-07T23:49:34.590Z,100282.47
2022-11-07T23:52:01.569Z,100273.63
2022-11-07T23:54:46.735Z,100272.75
2022-11-07T23:57:13.293Z,100273.59
2022-11-07T23:59:58.738Z,100265.63
